UAE507 VABB-OMDB
Flight info
| Callsign | UAE507 |
|---|---|
| Flight time | 2h 20m |
| Altitude | 32000 |
| Route | RAXET2A SAKUN V2 SUGID DCT PARAR DCT VUSET A454 PASOV B540 KUPMA/N0421F240 B540 MIVEK P574 IMPED |
| Aircraft | B77W/H-SDE1E2E3FGHIJ2J3J4J5M1RWXY/LB1D1 |
Departure
| Time | 2026-04-25 11:25 |
|---|---|
| Airport | Chhatrapati Shivaji Maharaj International Airport (VABB) |
Arrival
| Time | 2026-04-25 13:46 |
|---|---|
| Airport | Dubai International Airport (OMDB) |
| Time | Latitude | Longitude | Altitude | Speed | Heading |
|---|---|---|---|---|---|
| 2026-04-25 10:49 | 19.09503 | 72.87524 | 30 ft | 0 kts | 36° |
| 2026-04-25 11:09 | 19.09502 | 72.87524 | 30 ft | 0 kts | 36° |
| 2026-04-25 11:11 | 19.09502 | 72.87523 | 30 ft | 0 kts | 36° |
| 2026-04-25 11:14 | 19.09493 | 72.87516 | 28 ft | 3 kts | 37° |
| 2026-04-25 11:15 | 19.09477 | 72.87503 | 29 ft | 3 kts | 39° |
| 2026-04-25 11:15 | 19.09461 | 72.87490 | 28 ft | 3 kts | 39° |
| 2026-04-25 11:15 | 19.09449 | 72.87480 | 27 ft | 1 kts | 38° |
| 2026-04-25 11:15 | 19.09439 | 72.87472 | 29 ft | 3 kts | 18° |
| 2026-04-25 11:16 | 19.09421 | 72.87474 | 27 ft | 3 kts | 308° |
| 2026-04-25 11:16 | 19.09410 | 72.87491 | 28 ft | 3 kts | 295° |
| 2026-04-25 11:16 | 19.09403 | 72.87508 | 27 ft | 1 kts | 288° |
| 2026-04-25 11:17 | 19.09402 | 72.87512 | 27 ft | 0 kts | 287° |
| 2026-04-25 11:17 | 19.09402 | 72.87511 | 27 ft | 0 kts | 287° |
| 2026-04-25 11:17 | 19.09404 | 72.87508 | 27 ft | 2 kts | 287° |
| 2026-04-25 11:17 | 19.09408 | 72.87490 | 28 ft | 3 kts | 287° |
| 2026-04-25 11:18 | 19.09414 | 72.87467 | 27 ft | 3 kts | 280° |
| 2026-04-25 11:18 | 19.09412 | 72.87443 | 27 ft | 3 kts | 248° |
| 2026-04-25 11:18 | 19.09400 | 72.87422 | 28 ft | 3 kts | 233° |
| 2026-04-25 11:18 | 19.09393 | 72.87412 | 29 ft | 0 kts | 232° |
| 2026-04-25 11:20 | 19.09379 | 72.87394 | 30 ft | 7 kts | 230° |
| 2026-04-25 11:20 | 19.09330 | 72.87368 | 30 ft | 8 kts | 188° |
| 2026-04-25 11:20 | 19.09275 | 72.87363 | 30 ft | 8 kts | 191° |
| 2026-04-25 11:21 | 19.09240 | 72.87318 | 30 ft | 8 kts | 251° |
| 2026-04-25 11:21 | 19.09209 | 72.87271 | 30 ft | 8 kts | 208° |
| 2026-04-25 11:21 | 19.09150 | 72.87266 | 30 ft | 8 kts | 181° |
| 2026-04-25 11:21 | 19.09092 | 72.87268 | 30 ft | 8 kts | 173° |
| 2026-04-25 11:22 | 19.09054 | 72.87311 | 30 ft | 9 kts | 105° |
| 2026-04-25 11:22 | 19.09049 | 72.87370 | 30 ft | 16 kts | 92° |
| 2026-04-25 11:22 | 19.09051 | 72.87571 | 30 ft | 22 kts | 88° |
| 2026-04-25 11:22 | 19.09052 | 72.87732 | 30 ft | 22 kts | 90° |
| 2026-04-25 11:23 | 19.09054 | 72.87892 | 29 ft | 22 kts | 89° |
| 2026-04-25 11:23 | 19.09054 | 72.88021 | 30 ft | 10 kts | 101° |
| 2026-04-25 11:23 | 19.09000 | 72.88053 | 29 ft | 10 kts | 179° |
| 2026-04-25 11:23 | 19.08927 | 72.88052 | 28 ft | 9 kts | 181° |
| 2026-04-25 11:24 | 19.08888 | 72.88013 | 28 ft | 9 kts | 261° |
| 2026-04-25 11:24 | 19.08888 | 72.87915 | 29 ft | 26 kts | 269° |
| 2026-04-25 11:24 | 19.08881 | 72.87484 | 30 ft | 95 kts | 269° |
| 2026-04-25 11:24 | 19.08869 | 72.86564 | 30 ft | 156 kts | 269° |
| 2026-04-25 11:25 | 19.08840 | 72.85313 | 374 ft | 175 kts | 270° |
| 2026-04-25 11:25 | 19.08847 | 72.83999 | 923 ft | 186 kts | 277° |
| 2026-04-25 11:25 | 19.08870 | 72.82600 | 1515 ft | 191 kts | 273° |
| 2026-04-25 11:25 | 19.08838 | 72.81188 | 2148 ft | 196 kts | 272° |
| 2026-04-25 11:26 | 19.08804 | 72.79651 | 2372 ft | 222 kts | 272° |
| 2026-04-25 11:26 | 19.08770 | 72.77920 | 2579 ft | 251 kts | 271° |
| 2026-04-25 11:26 | 19.08732 | 72.75998 | 3024 ft | 267 kts | 271° |
| 2026-04-25 11:26 | 19.08733 | 72.74038 | 3720 ft | 269 kts | 279° |
| 2026-04-25 11:27 | 19.09350 | 72.72198 | 4238 ft | 271 kts | 300° |
| 2026-04-25 11:27 | 19.10276 | 72.70415 | 4850 ft | 279 kts | 300° |
| 2026-04-25 11:27 | 19.11223 | 72.68599 | 5564 ft | 283 kts | 299° |
| 2026-04-25 11:27 | 19.11855 | 72.67379 | 6048 ft | 287 kts | 299° |
| 2026-04-25 11:28 | 19.13132 | 72.64901 | 7018 ft | 290 kts | 299° |
| 2026-04-25 11:28 | 19.14104 | 72.62996 | 7682 ft | 296 kts | 299° |
| 2026-04-25 11:28 | 19.15078 | 72.61074 | 8497 ft | 297 kts | 299° |
| 2026-04-25 11:28 | 19.16055 | 72.59137 | 9153 ft | 302 kts | 298° |
| 2026-04-25 11:29 | 19.17046 | 72.57167 | 9873 ft | 306 kts | 298° |
| 2026-04-25 11:29 | 19.18057 | 72.55151 | 10359 ft | 319 kts | 298° |
| 2026-04-25 11:29 | 19.19125 | 72.53016 | 10531 ft | 345 kts | 298° |
| 2026-04-25 11:29 | 19.20288 | 72.50691 | 10672 ft | 370 kts | 298° |
| 2026-04-25 11:30 | 19.21517 | 72.48226 | 11193 ft | 381 kts | 298° |
| 2026-04-25 11:30 | 19.22761 | 72.45727 | 12042 ft | 384 kts | 298° |
| 2026-04-25 11:30 | 19.24014 | 72.43209 | 12932 ft | 388 kts | 298° |
| 2026-04-25 11:30 | 19.25261 | 72.40702 | 13819 ft | 391 kts | 298° |
| 2026-04-25 11:31 | 19.26514 | 72.38180 | 14547 ft | 397 kts | 298° |
| 2026-04-25 11:31 | 19.27806 | 72.35580 | 15297 ft | 401 kts | 298° |
| 2026-04-25 11:31 | 19.29115 | 72.32944 | 16042 ft | 406 kts | 298° |
| 2026-04-25 11:31 | 19.30438 | 72.30279 | 16844 ft | 410 kts | 298° |
| 2026-04-25 11:32 | 19.31763 | 72.27609 | 17544 ft | 416 kts | 298° |
| 2026-04-25 11:32 | 19.33125 | 72.24863 | 18127 ft | 425 kts | 299° |
| 2026-04-25 11:32 | 19.34506 | 72.22078 | 18685 ft | 425 kts | 298° |
| 2026-04-25 11:32 | 19.35849 | 72.19365 | 19404 ft | 407 kts | 298° |
| 2026-04-25 11:33 | 19.37165 | 72.16704 | 20047 ft | 410 kts | 298° |
| 2026-04-25 11:33 | 19.38507 | 72.13996 | 20241 ft | 429 kts | 298° |
| 2026-04-25 11:33 | 19.39913 | 72.11158 | 20679 ft | 439 kts | 298° |
| 2026-04-25 11:33 | 19.41336 | 72.08280 | 21373 ft | 440 kts | 298° |
| 2026-04-25 11:34 | 19.42763 | 72.05395 | 22121 ft | 442 kts | 298° |
| 2026-04-25 11:34 | 19.44185 | 72.02516 | 22703 ft | 448 kts | 298° |
| 2026-04-25 11:34 | 19.45636 | 71.99577 | 23299 ft | 452 kts | 297° |
| 2026-04-25 11:34 | 19.47105 | 71.96599 | 23777 ft | 457 kts | 297° |
| 2026-04-25 11:35 | 19.48584 | 71.93600 | 24273 ft | 460 kts | 297° |
| 2026-04-25 11:35 | 19.49959 | 71.90812 | 24777 ft | 462 kts | 297° |
| 2026-04-25 11:35 | 19.50951 | 71.88800 | 25147 ft | 463 kts | 297° |
| 2026-04-25 11:35 | 19.52444 | 71.85769 | 25709 ft | 465 kts | 297° |
| 2026-04-25 11:36 | 19.53944 | 71.82722 | 26222 ft | 467 kts | 297° |
| 2026-04-25 11:36 | 19.55456 | 71.79648 | 26708 ft | 471 kts | 297° |
| 2026-04-25 11:36 | 19.56976 | 71.76559 | 27229 ft | 473 kts | 297° |
| 2026-04-25 11:36 | 19.58502 | 71.73454 | 27685 ft | 476 kts | 297° |
| 2026-04-25 11:37 | 19.60041 | 71.70321 | 28139 ft | 479 kts | 297° |
| 2026-04-25 11:37 | 19.61565 | 71.67218 | 28572 ft | 482 kts | 297° |
| 2026-04-25 11:37 | 19.63119 | 71.64054 | 28991 ft | 485 kts | 297° |
| 2026-04-25 11:37 | 19.64683 | 71.60865 | 29364 ft | 488 kts | 297° |
| 2026-04-25 11:38 | 19.66262 | 71.57646 | 29669 ft | 493 kts | 297° |
| 2026-04-25 11:38 | 19.67847 | 71.54411 | 30059 ft | 494 kts | 297° |
| 2026-04-25 11:38 | 19.69429 | 71.51182 | 30602 ft | 490 kts | 297° |
| 2026-04-25 11:38 | 19.70978 | 71.48017 | 31073 ft | 488 kts | 297° |
| 2026-04-25 11:39 | 19.72540 | 71.44823 | 31526 ft | 487 kts | 297° |
| 2026-04-25 11:39 | 19.74105 | 71.41621 | 31833 ft | 489 kts | 297° |
| 2026-04-25 11:39 | 19.77281 | 71.35120 | 31815 ft | 498 kts | 297° |
| 2026-04-25 11:40 | 19.80441 | 71.28643 | 31805 ft | 491 kts | 297° |
| 2026-04-25 11:40 | 19.83574 | 71.22217 | 31814 ft | 489 kts | 298° |
| 2026-04-25 11:41 | 19.86704 | 71.15787 | 31819 ft | 492 kts | 298° |
| 2026-04-25 11:41 | 19.89852 | 71.09315 | 31814 ft | 494 kts | 298° |
| 2026-04-25 11:42 | 19.92984 | 71.02867 | 31817 ft | 493 kts | 298° |
| 2026-04-25 11:42 | 19.96126 | 70.96392 | 31819 ft | 493 kts | 298° |
| 2026-04-25 11:43 | 19.99274 | 70.89895 | 31820 ft | 494 kts | 298° |
| 2026-04-25 11:43 | 20.02421 | 70.83395 | 31817 ft | 494 kts | 298° |
| 2026-04-25 11:44 | 20.05567 | 70.76887 | 31819 ft | 494 kts | 298° |
| 2026-04-25 11:44 | 20.08713 | 70.70374 | 31820 ft | 495 kts | 299° |
| 2026-04-25 11:45 | 20.11322 | 70.64965 | 31818 ft | 495 kts | 299° |
| 2026-04-25 11:45 | 20.14464 | 70.58446 | 31818 ft | 495 kts | 299° |
| 2026-04-25 11:46 | 20.18117 | 70.50856 | 31819 ft | 495 kts | 299° |
| 2026-04-25 11:46 | 20.20747 | 70.45385 | 31822 ft | 496 kts | 299° |
| 2026-04-25 11:47 | 20.23886 | 70.38850 | 31824 ft | 496 kts | 299° |
| 2026-04-25 11:47 | 20.27003 | 70.32352 | 31822 ft | 496 kts | 299° |
| 2026-04-25 11:48 | 20.30139 | 70.25805 | 31825 ft | 496 kts | 299° |
| 2026-04-25 11:48 | 20.33273 | 70.19256 | 31828 ft | 496 kts | 299° |
| 2026-04-25 11:49 | 20.36405 | 70.12704 | 31830 ft | 496 kts | 299° |
| 2026-04-25 11:49 | 20.39533 | 70.06151 | 31834 ft | 496 kts | 299° |
| 2026-04-25 11:50 | 20.42661 | 69.99592 | 31835 ft | 496 kts | 300° |
| 2026-04-25 11:50 | 20.45787 | 69.93030 | 31838 ft | 496 kts | 300° |
| 2026-04-25 11:51 | 20.48911 | 69.86462 | 31838 ft | 496 kts | 300° |
| 2026-04-25 11:51 | 20.52029 | 69.79901 | 31841 ft | 496 kts | 300° |
| 2026-04-25 11:52 | 20.55123 | 69.73380 | 31842 ft | 496 kts | 300° |
| 2026-04-25 11:52 | 20.58238 | 69.66810 | 31843 ft | 496 kts | 300° |
| 2026-04-25 11:53 | 20.61346 | 69.60246 | 31843 ft | 495 kts | 300° |
| 2026-04-25 11:53 | 20.64451 | 69.53679 | 31845 ft | 495 kts | 300° |
| 2026-04-25 11:54 | 20.67554 | 69.47109 | 31845 ft | 495 kts | 300° |
| 2026-04-25 11:55 | 20.72203 | 69.37251 | 31845 ft | 495 kts | 300° |
| 2026-04-25 11:55 | 20.75301 | 69.30670 | 31846 ft | 495 kts | 300° |
| 2026-04-25 11:56 | 20.78397 | 69.24087 | 31846 ft | 495 kts | 299° |
| 2026-04-25 11:56 | 20.81471 | 69.17545 | 31844 ft | 495 kts | 299° |
| 2026-04-25 11:57 | 20.84557 | 69.10965 | 31846 ft | 495 kts | 299° |
| 2026-04-25 11:57 | 20.87644 | 69.04377 | 31846 ft | 495 kts | 299° |
| 2026-04-25 11:58 | 20.90725 | 68.97795 | 31849 ft | 495 kts | 299° |
| 2026-04-25 11:58 | 20.93803 | 68.91209 | 31847 ft | 495 kts | 299° |
| 2026-04-25 11:59 | 20.96870 | 68.84640 | 31852 ft | 495 kts | 299° |
| 2026-04-25 11:59 | 20.99940 | 68.78055 | 31849 ft | 494 kts | 299° |
| 2026-04-25 12:00 | 21.04532 | 68.68192 | 31849 ft | 493 kts | 298° |
| 2026-04-25 12:01 | 21.09117 | 68.58325 | 31852 ft | 493 kts | 298° |
| 2026-04-25 12:01 | 21.12162 | 68.51764 | 31849 ft | 493 kts | 298° |
| 2026-04-25 12:02 | 21.16710 | 68.41945 | 31853 ft | 492 kts | 298° |
| 2026-04-25 12:02 | 21.19750 | 68.35374 | 31856 ft | 492 kts | 298° |
| 2026-04-25 12:03 | 21.22782 | 68.28809 | 31853 ft | 492 kts | 298° |
| 2026-04-25 12:03 | 21.25812 | 68.22241 | 31855 ft | 491 kts | 298° |
| 2026-04-25 12:04 | 21.28840 | 68.15670 | 31854 ft | 491 kts | 298° |
| 2026-04-25 12:04 | 21.31864 | 68.09100 | 31856 ft | 491 kts | 298° |
| 2026-04-25 12:05 | 21.34894 | 68.02508 | 31853 ft | 492 kts | 298° |
| 2026-04-25 12:05 | 21.37896 | 67.95968 | 31854 ft | 491 kts | 298° |
| 2026-04-25 12:06 | 21.40926 | 67.89361 | 31852 ft | 491 kts | 298° |
| 2026-04-25 12:06 | 21.43935 | 67.82789 | 31855 ft | 491 kts | 298° |
| 2026-04-25 12:07 | 21.46941 | 67.76217 | 31869 ft | 491 kts | 298° |
| 2026-04-25 12:07 | 21.49957 | 67.69612 | 31852 ft | 491 kts | 298° |
| 2026-04-25 12:08 | 21.52962 | 67.63025 | 31847 ft | 491 kts | 298° |
| 2026-04-25 12:08 | 21.55958 | 67.56449 | 31851 ft | 491 kts | 298° |
| 2026-04-25 12:09 | 21.58952 | 67.49869 | 31862 ft | 490 kts | 298° |
| 2026-04-25 12:09 | 21.61945 | 67.43283 | 31866 ft | 490 kts | 298° |
| 2026-04-25 12:10 | 21.64932 | 67.36700 | 31862 ft | 490 kts | 297° |
| 2026-04-25 12:10 | 21.67904 | 67.30143 | 31846 ft | 490 kts | 297° |
| 2026-04-25 12:11 | 21.70911 | 67.23502 | 31846 ft | 490 kts | 297° |
| 2026-04-25 12:11 | 21.73870 | 67.16956 | 31862 ft | 490 kts | 297° |
| 2026-04-25 12:12 | 21.76368 | 67.11424 | 31845 ft | 490 kts | 297° |
| 2026-04-25 12:12 | 21.79820 | 67.03771 | 31855 ft | 490 kts | 297° |
| 2026-04-25 12:13 | 21.82790 | 66.97176 | 31861 ft | 490 kts | 297° |
| 2026-04-25 12:13 | 21.85762 | 66.90568 | 31857 ft | 490 kts | 297° |
| 2026-04-25 12:14 | 21.88721 | 66.83979 | 31861 ft | 490 kts | 297° |
| 2026-04-25 12:14 | 21.91692 | 66.77356 | 31857 ft | 491 kts | 297° |
| 2026-04-25 12:15 | 21.94656 | 66.70740 | 31856 ft | 491 kts | 297° |
| 2026-04-25 12:15 | 21.97621 | 66.64113 | 31857 ft | 490 kts | 297° |
| 2026-04-25 12:16 | 22.00580 | 66.57487 | 31862 ft | 491 kts | 297° |
| 2026-04-25 12:16 | 22.03542 | 66.50850 | 31861 ft | 491 kts | 297° |
| 2026-04-25 12:17 | 22.06444 | 66.44182 | 31851 ft | 492 kts | 296° |
| 2026-04-25 12:17 | 22.09102 | 66.37445 | 31853 ft | 493 kts | 295° |
| 2026-04-25 12:18 | 22.11738 | 66.30632 | 31852 ft | 492 kts | 295° |
| 2026-04-25 12:18 | 22.14401 | 66.23831 | 31851 ft | 492 kts | 295° |
| 2026-04-25 12:19 | 22.18430 | 66.13625 | 31850 ft | 492 kts | 295° |
| 2026-04-25 12:20 | 22.21109 | 66.06837 | 31852 ft | 492 kts | 295° |
| 2026-04-25 12:20 | 22.23790 | 66.00028 | 31850 ft | 492 kts | 295° |
| 2026-04-25 12:21 | 22.26456 | 65.93247 | 31841 ft | 492 kts | 295° |
| 2026-04-25 12:21 | 22.29126 | 65.86443 | 31851 ft | 492 kts | 295° |
| 2026-04-25 12:22 | 22.31788 | 65.79651 | 31843 ft | 492 kts | 295° |
| 2026-04-25 12:22 | 22.34437 | 65.72882 | 31851 ft | 492 kts | 295° |
| 2026-04-25 12:23 | 22.37093 | 65.66085 | 31852 ft | 492 kts | 295° |
| 2026-04-25 12:23 | 22.39752 | 65.59272 | 31855 ft | 492 kts | 295° |
| 2026-04-25 12:24 | 22.42407 | 65.52459 | 31850 ft | 491 kts | 295° |
| 2026-04-25 12:24 | 22.45050 | 65.45666 | 31853 ft | 490 kts | 295° |
| 2026-04-25 12:25 | 22.47692 | 65.38866 | 31849 ft | 491 kts | 295° |
| 2026-04-25 12:25 | 22.50331 | 65.32064 | 31852 ft | 491 kts | 295° |
| 2026-04-25 12:26 | 22.52970 | 65.25253 | 31852 ft | 490 kts | 295° |
| 2026-04-25 12:26 | 22.55601 | 65.18449 | 31852 ft | 490 kts | 295° |
| 2026-04-25 12:27 | 22.58223 | 65.11662 | 31855 ft | 490 kts | 294° |
| 2026-04-25 12:27 | 22.60852 | 65.04846 | 31853 ft | 490 kts | 294° |
| 2026-04-25 12:28 | 22.63452 | 64.98095 | 31852 ft | 490 kts | 294° |
| 2026-04-25 12:28 | 22.66093 | 64.91227 | 31854 ft | 490 kts | 294° |
| 2026-04-25 12:29 | 22.68688 | 64.84468 | 31849 ft | 489 kts | 294° |
| 2026-04-25 12:29 | 22.71297 | 64.77664 | 31855 ft | 489 kts | 294° |
| 2026-04-25 12:30 | 22.73901 | 64.70864 | 31856 ft | 489 kts | 294° |
| 2026-04-25 12:30 | 22.76503 | 64.64056 | 31848 ft | 489 kts | 294° |
| 2026-04-25 12:31 | 22.79114 | 64.57216 | 31850 ft | 489 kts | 294° |
| 2026-04-25 12:31 | 22.81711 | 64.50403 | 31850 ft | 489 kts | 294° |
| 2026-04-25 12:32 | 22.84308 | 64.43580 | 31852 ft | 489 kts | 294° |
| 2026-04-25 12:32 | 22.86900 | 64.36757 | 31852 ft | 489 kts | 294° |
| 2026-04-25 12:33 | 22.89486 | 64.29942 | 31851 ft | 489 kts | 294° |
| 2026-04-25 12:33 | 22.92070 | 64.23120 | 31854 ft | 488 kts | 294° |
| 2026-04-25 12:34 | 22.94649 | 64.16304 | 31852 ft | 488 kts | 294° |
| 2026-04-25 12:34 | 22.97223 | 64.09488 | 31851 ft | 488 kts | 294° |
| 2026-04-25 12:35 | 22.99792 | 64.02676 | 31851 ft | 487 kts | 294° |
| 2026-04-25 12:35 | 23.01924 | 63.97014 | 31852 ft | 487 kts | 294° |
| 2026-04-25 12:36 | 23.04472 | 63.90195 | 31853 ft | 487 kts | 291° |
| 2026-04-25 12:36 | 23.06240 | 63.83075 | 31850 ft | 490 kts | 281° |
| 2026-04-25 12:37 | 23.07041 | 63.75718 | 31857 ft | 491 kts | 277° |
| 2026-04-25 12:37 | 23.07751 | 63.68338 | 31851 ft | 491 kts | 277° |
| 2026-04-25 12:38 | 23.08483 | 63.60972 | 31853 ft | 490 kts | 278° |
| 2026-04-25 12:38 | 23.09237 | 63.53614 | 31853 ft | 490 kts | 278° |
| 2026-04-25 12:39 | 23.09996 | 63.46259 | 31852 ft | 490 kts | 278° |
| 2026-04-25 12:39 | 23.10750 | 63.38906 | 31853 ft | 490 kts | 277° |
| 2026-04-25 12:40 | 23.11500 | 63.31551 | 31855 ft | 489 kts | 277° |
| 2026-04-25 12:40 | 23.12239 | 63.24259 | 31853 ft | 489 kts | 277° |
| 2026-04-25 12:41 | 23.12980 | 63.16918 | 31860 ft | 489 kts | 277° |
| 2026-04-25 12:41 | 23.13715 | 63.09592 | 31855 ft | 488 kts | 277° |
| 2026-04-25 12:42 | 23.14447 | 63.02267 | 31859 ft | 487 kts | 277° |
| 2026-04-25 12:42 | 23.15178 | 62.94931 | 31866 ft | 492 kts | 277° |
| 2026-04-25 12:43 | 23.15915 | 62.87489 | 31862 ft | 500 kts | 277° |
| 2026-04-25 12:43 | 23.17023 | 62.76222 | 31856 ft | 499 kts | 277° |
| 2026-04-25 12:44 | 23.17757 | 62.68719 | 31857 ft | 498 kts | 277° |
| 2026-04-25 12:45 | 23.18848 | 62.57494 | 31853 ft | 497 kts | 277° |
| 2026-04-25 12:45 | 23.19929 | 62.46289 | 31859 ft | 497 kts | 276° |
| 2026-04-25 12:46 | 23.20645 | 62.38817 | 31858 ft | 497 kts | 276° |
| 2026-04-25 12:46 | 23.21357 | 62.31349 | 31858 ft | 497 kts | 276° |
| 2026-04-25 12:47 | 23.22065 | 62.23892 | 31858 ft | 497 kts | 276° |
| 2026-04-25 12:47 | 23.22771 | 62.16411 | 31858 ft | 497 kts | 276° |
| 2026-04-25 12:48 | 23.23473 | 62.08943 | 31858 ft | 497 kts | 276° |
| 2026-04-25 12:48 | 23.24166 | 62.01524 | 31858 ft | 497 kts | 276° |
| 2026-04-25 12:49 | 23.24861 | 61.94052 | 31857 ft | 497 kts | 276° |
| 2026-04-25 12:49 | 23.25552 | 61.86586 | 31857 ft | 496 kts | 276° |
| 2026-04-25 12:50 | 23.26239 | 61.79114 | 31860 ft | 496 kts | 276° |
| 2026-04-25 12:50 | 23.26922 | 61.71648 | 31857 ft | 496 kts | 276° |
| 2026-04-25 12:51 | 23.27602 | 61.64183 | 31857 ft | 496 kts | 276° |
| 2026-04-25 12:51 | 23.28278 | 61.56721 | 31857 ft | 495 kts | 276° |
| 2026-04-25 12:52 | 23.28949 | 61.49266 | 31857 ft | 496 kts | 276° |
| 2026-04-25 12:52 | 23.29618 | 61.41801 | 31858 ft | 496 kts | 276° |
| 2026-04-25 12:53 | 23.30283 | 61.34337 | 31857 ft | 496 kts | 276° |
| 2026-04-25 12:53 | 23.30945 | 61.26874 | 31856 ft | 496 kts | 276° |
| 2026-04-25 12:54 | 23.31603 | 61.19414 | 31858 ft | 495 kts | 276° |
| 2026-04-25 12:54 | 23.32403 | 61.11980 | 31859 ft | 495 kts | 278° |
| 2026-04-25 12:55 | 23.33226 | 61.05814 | 31856 ft | 495 kts | 279° |
| 2026-04-25 12:55 | 23.34356 | 60.97209 | 31856 ft | 494 kts | 278° |
| 2026-04-25 12:56 | 23.35284 | 60.89804 | 31856 ft | 494 kts | 278° |
| 2026-04-25 12:56 | 23.36201 | 60.82401 | 31858 ft | 494 kts | 278° |
| 2026-04-25 12:57 | 23.37116 | 60.75016 | 31859 ft | 493 kts | 278° |
| 2026-04-25 12:57 | 23.38058 | 60.67634 | 31859 ft | 493 kts | 280° |
| 2026-04-25 12:58 | 23.39830 | 60.60427 | 31857 ft | 493 kts | 290° |
| 2026-04-25 12:58 | 23.42394 | 60.53486 | 31860 ft | 493 kts | 292° |
| 2026-04-25 12:59 | 23.44985 | 60.46558 | 31855 ft | 494 kts | 292° |
| 2026-04-25 12:59 | 23.47543 | 60.39616 | 31854 ft | 494 kts | 291° |
| 2026-04-25 13:00 | 23.49652 | 60.33836 | 31855 ft | 494 kts | 291° |
| 2026-04-25 13:00 | 23.52611 | 60.25696 | 31856 ft | 494 kts | 291° |
| 2026-04-25 13:01 | 23.55142 | 60.18723 | 31852 ft | 494 kts | 291° |
| 2026-04-25 13:01 | 23.57671 | 60.11752 | 31852 ft | 494 kts | 291° |
| 2026-04-25 13:02 | 23.60181 | 60.04822 | 31857 ft | 494 kts | 291° |
| 2026-04-25 13:02 | 23.62701 | 59.97851 | 31858 ft | 494 kts | 291° |
| 2026-04-25 13:03 | 23.65219 | 59.90876 | 31850 ft | 494 kts | 291° |
| 2026-04-25 13:03 | 23.67734 | 59.83896 | 31854 ft | 494 kts | 291° |
| 2026-04-25 13:04 | 23.70242 | 59.76925 | 31859 ft | 494 kts | 291° |
| 2026-04-25 13:04 | 23.72744 | 59.69959 | 31853 ft | 493 kts | 291° |
| 2026-04-25 13:05 | 23.75242 | 59.62993 | 31853 ft | 492 kts | 291° |
| 2026-04-25 13:05 | 23.77730 | 59.56043 | 31853 ft | 491 kts | 291° |
| 2026-04-25 13:06 | 23.80215 | 59.49090 | 31852 ft | 491 kts | 291° |
| 2026-04-25 13:06 | 23.82697 | 59.42136 | 31853 ft | 491 kts | 290° |
| 2026-04-25 13:07 | 23.85175 | 59.35181 | 31855 ft | 491 kts | 290° |
| 2026-04-25 13:07 | 23.87647 | 59.28231 | 31851 ft | 491 kts | 290° |
| 2026-04-25 13:08 | 23.90097 | 59.21328 | 31854 ft | 491 kts | 290° |
| 2026-04-25 13:08 | 23.92563 | 59.14373 | 31854 ft | 490 kts | 290° |
| 2026-04-25 13:09 | 23.94910 | 59.07368 | 31852 ft | 490 kts | 289° |
| 2026-04-25 13:09 | 23.97132 | 59.00332 | 31852 ft | 490 kts | 288° |
| 2026-04-25 13:10 | 23.99370 | 58.93276 | 31852 ft | 490 kts | 288° |
| 2026-04-25 13:10 | 24.01618 | 58.86248 | 31854 ft | 490 kts | 289° |
| 2026-04-25 13:11 | 24.03860 | 58.79247 | 31854 ft | 490 kts | 289° |
| 2026-04-25 13:11 | 24.06114 | 58.72192 | 31848 ft | 490 kts | 289° |
| 2026-04-25 13:12 | 24.08365 | 58.65128 | 31850 ft | 490 kts | 288° |
| 2026-04-25 13:12 | 24.10247 | 58.59216 | 31850 ft | 490 kts | 288° |
| 2026-04-25 13:13 | 24.12844 | 58.51027 | 31849 ft | 490 kts | 288° |
| 2026-04-25 13:13 | 24.15081 | 58.43952 | 31848 ft | 490 kts | 288° |
| 2026-04-25 13:14 | 24.17307 | 58.36896 | 31849 ft | 490 kts | 288° |
| 2026-04-25 13:14 | 24.19528 | 58.29846 | 31850 ft | 490 kts | 288° |
| 2026-04-25 13:15 | 24.21747 | 58.22790 | 31847 ft | 489 kts | 288° |
| 2026-04-25 13:15 | 24.23959 | 58.15744 | 31844 ft | 489 kts | 288° |
| 2026-04-25 13:16 | 24.26155 | 58.08737 | 31847 ft | 489 kts | 288° |
| 2026-04-25 13:16 | 24.28357 | 58.01694 | 31844 ft | 488 kts | 288° |
| 2026-04-25 13:17 | 24.30555 | 57.94654 | 31844 ft | 488 kts | 288° |
| 2026-04-25 13:17 | 24.32748 | 57.87616 | 31842 ft | 487 kts | 288° |
| 2026-04-25 13:18 | 24.34937 | 57.80581 | 31845 ft | 487 kts | 288° |
| 2026-04-25 13:18 | 24.37118 | 57.73557 | 31844 ft | 486 kts | 288° |
| 2026-04-25 13:19 | 24.39292 | 57.66541 | 31845 ft | 485 kts | 288° |
| 2026-04-25 13:19 | 24.40742 | 57.61854 | 31845 ft | 485 kts | 288° |
| 2026-04-25 13:20 | 24.43624 | 57.52523 | 31849 ft | 484 kts | 288° |
| 2026-04-25 13:20 | 24.44693 | 57.49061 | 31829 ft | 469 kts | 288° |
| 2026-04-25 13:20 | 24.45719 | 57.45743 | 31826 ft | 451 kts | 288° |
| 2026-04-25 13:21 | 24.46708 | 57.42544 | 31827 ft | 434 kts | 288° |
| 2026-04-25 13:21 | 24.47663 | 57.39449 | 31727 ft | 422 kts | 288° |
| 2026-04-25 13:21 | 24.48600 | 57.36409 | 31273 ft | 420 kts | 287° |
| 2026-04-25 13:21 | 24.49530 | 57.33384 | 30836 ft | 416 kts | 287° |
| 2026-04-25 13:22 | 24.50441 | 57.30421 | 30365 ft | 413 kts | 287° |
| 2026-04-25 13:22 | 24.51357 | 57.27437 | 29895 ft | 411 kts | 287° |
| 2026-04-25 13:22 | 24.52269 | 57.24466 | 29351 ft | 409 kts | 287° |
| 2026-04-25 13:23 | 24.54074 | 57.18580 | 28334 ft | 404 kts | 287° |
| 2026-04-25 13:23 | 24.54678 | 57.16609 | 28015 ft | 402 kts | 287° |
| 2026-04-25 13:23 | 24.55569 | 57.13699 | 27521 ft | 400 kts | 287° |
| 2026-04-25 13:23 | 24.56441 | 57.10850 | 27059 ft | 397 kts | 287° |
| 2026-04-25 13:24 | 24.57321 | 57.07971 | 26595 ft | 395 kts | 287° |
| 2026-04-25 13:24 | 24.58192 | 57.05118 | 26120 ft | 393 kts | 287° |
| 2026-04-25 13:24 | 24.59058 | 57.02282 | 25659 ft | 391 kts | 288° |
| 2026-04-25 13:24 | 24.59920 | 56.99455 | 25204 ft | 389 kts | 288° |
| 2026-04-25 13:25 | 24.60778 | 56.96639 | 24744 ft | 388 kts | 288° |
| 2026-04-25 13:25 | 24.61635 | 56.93824 | 24275 ft | 388 kts | 288° |
| 2026-04-25 13:25 | 24.62488 | 56.91022 | 23819 ft | 387 kts | 288° |
| 2026-04-25 13:25 | 24.63341 | 56.88220 | 23346 ft | 386 kts | 288° |
| 2026-04-25 13:26 | 24.64201 | 56.85548 | 22909 ft | 383 kts | 291° |
| 2026-04-25 13:26 | 24.65301 | 56.82918 | 22609 ft | 377 kts | 297° |
| 2026-04-25 13:26 | 24.66628 | 56.80429 | 22244 ft | 374 kts | 300° |
| 2026-04-25 13:26 | 24.67981 | 56.77996 | 21890 ft | 372 kts | 300° |
| 2026-04-25 13:27 | 24.69335 | 56.75571 | 21538 ft | 372 kts | 300° |
| 2026-04-25 13:27 | 24.70684 | 56.73146 | 21194 ft | 371 kts | 300° |
| 2026-04-25 13:27 | 24.72027 | 56.70722 | 20844 ft | 371 kts | 300° |
| 2026-04-25 13:27 | 24.73361 | 56.68304 | 20500 ft | 369 kts | 300° |
| 2026-04-25 13:28 | 24.74667 | 56.65931 | 20149 ft | 368 kts | 299° |
| 2026-04-25 13:28 | 24.75524 | 56.64371 | 19948 ft | 367 kts | 299° |
| 2026-04-25 13:28 | 24.77274 | 56.61165 | 19622 ft | 363 kts | 297° |
| 2026-04-25 13:28 | 24.78370 | 56.58656 | 19291 ft | 362 kts | 291° |
| 2026-04-25 13:29 | 24.79313 | 56.56097 | 18993 ft | 362 kts | 290° |
| 2026-04-25 13:29 | 24.80239 | 56.53519 | 18668 ft | 361 kts | 290° |
| 2026-04-25 13:29 | 24.81149 | 56.50982 | 18327 ft | 359 kts | 290° |
| 2026-04-25 13:30 | 24.82988 | 56.45909 | 17631 ft | 354 kts | 290° |
| 2026-04-25 13:30 | 24.83904 | 56.43404 | 17299 ft | 351 kts | 290° |
| 2026-04-25 13:30 | 24.84814 | 56.40920 | 16982 ft | 349 kts | 290° |
| 2026-04-25 13:31 | 24.86626 | 56.35981 | 16354 ft | 347 kts | 290° |
| 2026-04-25 13:31 | 24.87528 | 56.33524 | 16036 ft | 345 kts | 290° |
| 2026-04-25 13:31 | 24.88426 | 56.31076 | 15726 ft | 344 kts | 290° |
| 2026-04-25 13:31 | 24.89322 | 56.28631 | 15415 ft | 343 kts | 290° |
| 2026-04-25 13:32 | 24.90214 | 56.26197 | 15105 ft | 342 kts | 290° |
| 2026-04-25 13:32 | 24.91095 | 56.23790 | 14789 ft | 340 kts | 290° |
| 2026-04-25 13:32 | 24.91984 | 56.21360 | 14492 ft | 339 kts | 290° |
| 2026-04-25 13:32 | 24.92863 | 56.18957 | 14177 ft | 338 kts | 290° |
| 2026-04-25 13:33 | 24.93739 | 56.16562 | 13888 ft | 337 kts | 290° |
| 2026-04-25 13:33 | 24.94615 | 56.14162 | 13557 ft | 338 kts | 290° |
| 2026-04-25 13:33 | 24.95429 | 56.11773 | 13209 ft | 337 kts | 288° |
| 2026-04-25 13:33 | 24.95940 | 56.10131 | 12961 ft | 335 kts | 287° |
| 2026-04-25 13:34 | 24.96905 | 56.06930 | 12640 ft | 316 kts | 286° |
| 2026-04-25 13:34 | 24.97568 | 56.04740 | 12327 ft | 296 kts | 286° |
| 2026-04-25 13:34 | 24.98210 | 56.02629 | 11768 ft | 286 kts | 286° |
| 2026-04-25 13:34 | 24.98840 | 56.00565 | 11065 ft | 284 kts | 286° |
| 2026-04-25 13:35 | 24.99471 | 55.98505 | 10368 ft | 281 kts | 285° |
| 2026-04-25 13:35 | 25.00090 | 55.96485 | 9727 ft | 277 kts | 286° |
| 2026-04-25 13:35 | 25.00706 | 55.94482 | 9089 ft | 272 kts | 285° |
| 2026-04-25 13:35 | 25.01297 | 55.92566 | 8783 ft | 257 kts | 286° |
| 2026-04-25 13:36 | 25.01871 | 55.90703 | 8538 ft | 261 kts | 285° |
| 2026-04-25 13:36 | 25.02470 | 55.88749 | 8262 ft | 273 kts | 286° |
| 2026-04-25 13:36 | 25.03078 | 55.86769 | 7952 ft | 271 kts | 287° |
| 2026-04-25 13:36 | 25.03679 | 55.84822 | 7657 ft | 266 kts | 287° |
| 2026-04-25 13:37 | 25.04267 | 55.82911 | 7369 ft | 266 kts | 287° |
| 2026-04-25 13:37 | 25.04858 | 55.80992 | 7090 ft | 262 kts | 287° |
| 2026-04-25 13:37 | 25.05427 | 55.79144 | 6827 ft | 262 kts | 287° |
| 2026-04-25 13:37 | 25.06011 | 55.77242 | 6541 ft | 260 kts | 287° |
| 2026-04-25 13:38 | 25.06587 | 55.75362 | 6266 ft | 255 kts | 287° |
| 2026-04-25 13:38 | 25.07141 | 55.73563 | 5961 ft | 239 kts | 287° |
| 2026-04-25 13:38 | 25.07657 | 55.71890 | 5696 ft | 222 kts | 287° |
| 2026-04-25 13:38 | 25.08131 | 55.70343 | 5446 ft | 205 kts | 287° |
| 2026-04-25 13:39 | 25.08577 | 55.68888 | 5243 ft | 197 kts | 288° |
| 2026-04-25 13:39 | 25.09015 | 55.67459 | 5043 ft | 195 kts | 288° |
| 2026-04-25 13:39 | 25.09443 | 55.66062 | 4845 ft | 192 kts | 288° |
| 2026-04-25 13:39 | 25.09878 | 55.64652 | 4659 ft | 196 kts | 291° |
| 2026-04-25 13:40 | 25.10471 | 55.63284 | 4490 ft | 203 kts | 298° |
| 2026-04-25 13:40 | 25.11189 | 55.61908 | 4221 ft | 210 kts | 300° |
| 2026-04-25 13:40 | 25.11952 | 55.60516 | 3991 ft | 211 kts | 302° |
| 2026-04-25 13:40 | 25.12710 | 55.59144 | 3752 ft | 208 kts | 302° |
| 2026-04-25 13:41 | 25.13470 | 55.57773 | 3551 ft | 213 kts | 302° |
| 2026-04-25 13:41 | 25.14257 | 55.56353 | 3307 ft | 218 kts | 303° |
| 2026-04-25 13:41 | 25.15030 | 55.54955 | 3057 ft | 211 kts | 302° |
| 2026-04-25 13:41 | 25.15773 | 55.53612 | 2807 ft | 199 kts | 303° |
| 2026-04-25 13:42 | 25.16493 | 55.52315 | 2609 ft | 199 kts | 303° |
| 2026-04-25 13:42 | 25.17216 | 55.51006 | 2325 ft | 193 kts | 303° |
| 2026-04-25 13:42 | 25.17886 | 55.49795 | 2098 ft | 177 kts | 303° |
| 2026-04-25 13:42 | 25.18498 | 55.48689 | 1890 ft | 159 kts | 303° |
| 2026-04-25 13:43 | 25.19032 | 55.47722 | 1692 ft | 141 kts | 304° |
| 2026-04-25 13:43 | 25.19550 | 55.46789 | 1544 ft | 146 kts | 303° |
| 2026-04-25 13:43 | 25.20085 | 55.45818 | 1322 ft | 149 kts | 302° |
| 2026-04-25 13:43 | 25.20625 | 55.44848 | 1164 ft | 151 kts | 302° |
| 2026-04-25 13:44 | 25.21168 | 55.43862 | 965 ft | 149 kts | 302° |
| 2026-04-25 13:44 | 25.21688 | 55.42869 | 733 ft | 149 kts | 299° |
| 2026-04-25 13:44 | 25.22215 | 55.41925 | 576 ft | 142 kts | 304° |
| 2026-04-25 13:44 | 25.22747 | 55.40995 | 363 ft | 144 kts | 302° |
| 2026-04-25 13:45 | 25.23258 | 55.40084 | 141 ft | 137 kts | 302° |
| 2026-04-25 13:45 | 25.23749 | 55.39203 | 36 ft | 130 kts | 302° |
| 2026-04-25 13:45 | 25.24162 | 55.38459 | 28 ft | 93 kts | 301° |
| 2026-04-25 13:45 | 25.24415 | 55.38004 | 27 ft | 62 kts | 302° |
| 2026-04-25 13:46 | 25.24579 | 55.37688 | 27 ft | 24 kts | 292° |
| 2026-04-25 13:46 | 25.24614 | 55.37505 | 27 ft | 22 kts | 271° |
| 2026-04-25 13:46 | 25.24619 | 55.37368 | 27 ft | 13 kts | 272° |
| 2026-04-25 13:46 | 25.24626 | 55.37272 | 27 ft | 12 kts | 285° |
| 2026-04-25 13:47 | 25.24665 | 55.37190 | 27 ft | 10 kts | 300° |
| 2026-04-25 13:47 | 25.24678 | 55.37165 | 27 ft | 0 kts | 301° |
| 2026-04-25 13:47 | 25.24681 | 55.37160 | 27 ft | 1 kts | 301° |
| 2026-04-25 13:47 | 25.24684 | 55.37155 | 27 ft | 0 kts | 301° |
| 2026-04-25 13:48 | 25.24697 | 55.37131 | 27 ft | 10 kts | 301° |
| 2026-04-25 13:48 | 25.24754 | 55.37029 | 27 ft | 18 kts | 302° |
| 2026-04-25 13:48 | 25.24821 | 55.36913 | 27 ft | 18 kts | 301° |
| 2026-04-25 13:49 | 25.24859 | 55.36781 | 27 ft | 18 kts | 282° |
| 2026-04-25 13:49 | 25.24899 | 55.36651 | 27 ft | 18 kts | 300° |
| 2026-04-25 13:49 | 25.24963 | 55.36532 | 27 ft | 18 kts | 301° |
| 2026-04-25 13:49 | 25.25029 | 55.36414 | 27 ft | 18 kts | 301° |
| 2026-04-25 13:50 | 25.25094 | 55.36295 | 27 ft | 18 kts | 301° |
| 2026-04-25 13:50 | 25.25158 | 55.36178 | 27 ft | 18 kts | 301° |
| 2026-04-25 13:50 | 25.25223 | 55.36060 | 27 ft | 18 kts | 301° |
| 2026-04-25 13:50 | 25.25289 | 55.35941 | 27 ft | 18 kts | 301° |
| 2026-04-25 13:51 | 25.25353 | 55.35824 | 27 ft | 18 kts | 301° |
| 2026-04-25 13:51 | 25.25417 | 55.35707 | 27 ft | 18 kts | 301° |
| 2026-04-25 13:51 | 25.25465 | 55.35581 | 27 ft | 18 kts | 277° |
| 2026-04-25 13:51 | 25.25474 | 55.35443 | 27 ft | 18 kts | 281° |
| 2026-04-25 13:52 | 25.25529 | 55.35325 | 27 ft | 14 kts | 301° |
| 2026-04-25 13:52 | 25.25545 | 55.35253 | 27 ft | 7 kts | 244° |
| 2026-04-25 13:52 | 25.25527 | 55.35232 | 27 ft | 4 kts | 217° |
| 2026-04-25 13:52 | 25.25504 | 55.35217 | 27 ft | 2 kts | 211° |
| 2026-04-25 13:53 | 25.25490 | 55.35207 | 27 ft | 1 kts | 210° |
| 2026-04-25 13:53 | 25.25485 | 55.35205 | 27 ft | 0 kts | 210° |